createdAt,value
2024-03-16T00:00:53.974Z,84.90
2024-03-16T00:03:22.097Z,84.30
2024-03-16T00:05:49.621Z,82.90
2024-03-16T00:08:17.057Z,88.30
2024-03-16T00:10:45.466Z,90.80
2024-03-16T00:13:12.884Z,83.10
2024-03-16T00:15:40.382Z,99.70
2024-03-16T00:18:08.616Z,88.80
2024-03-16T00:20:36.526Z,81.40
2024-03-16T00:23:04.138Z,82.30
2024-03-16T00:25:31.568Z,99.90
2024-03-16T00:27:59.036Z,99.00
2024-03-16T00:30:27.849Z,104.50
2024-03-16T00:32:55.902Z,90.30
2024-03-16T00:35:24.007Z,99.00
2024-03-16T00:37:51.969Z,96.90
2024-03-16T00:40:21.299Z,84.80
2024-03-16T00:42:48.728Z,87.20
2024-03-16T00:45:16.211Z,101.10
2024-03-16T00:47:44.358Z,89.50
2024-03-16T00:50:11.789Z,98.50
2024-03-16T00:52:39.210Z,122.20
2024-03-16T00:55:06.828Z,110.10
2024-03-16T00:57:34.578Z,117.30
2024-03-16T01:00:03.062Z,121.40
2024-03-16T01:02:30.472Z,121.30
2024-03-16T01:04:57.855Z,111.30
2024-03-16T01:07:25.341Z,105.20
2024-03-16T01:09:52.885Z,127.30
2024-03-16T01:12:20.976Z,117.50
2024-03-16T01:14:49.248Z,117.40
2024-03-16T01:17:17.075Z,119.70
2024-03-16T01:19:45.531Z,133.30
2024-03-16T01:22:13.106Z,124.60
2024-03-16T01:24:41.268Z,153.30
2024-03-16T01:27:08.874Z,122.90
2024-03-16T01:29:36.395Z,113.40
2024-03-16T01:32:06.551Z,106.30
2024-03-16T01:34:33.990Z,117.20
2024-03-16T01:37:01.578Z,102.40
2024-03-16T01:39:30.847Z,111.50
2024-03-16T01:41:58.781Z,119.00
2024-03-16T01:44:26.391Z,114.50
2024-03-16T01:46:53.921Z,104.20
2024-03-16T01:49:22.862Z,106.50
2024-03-16T01:51:50.438Z,104.80
2024-03-16T01:54:17.955Z,105.00
2024-03-16T01:56:45.626Z,106.50
2024-03-16T01:59:15.949Z,110.90
2024-03-16T02:01:43.444Z,113.80
2024-03-16T02:04:11.062Z,103.90
2024-03-16T02:06:38.725Z,104.40
2024-03-16T02:09:07.697Z,104.20
2024-03-16T02:11:35.254Z,102.10
2024-03-16T02:14:02.821Z,106.30
2024-03-16T02:16:30.307Z,109.30
2024-03-16T02:18:59.057Z,108.00
2024-03-16T02:21:26.788Z,107.90
2024-03-16T02:23:54.428Z,113.30
2024-03-16T02:26:21.789Z,114.70
2024-03-16T02:28:49.229Z,115.80
2024-03-16T02:31:16.826Z,108.30
2024-03-16T02:33:44.356Z,84.30
2024-03-16T02:36:11.935Z,103.80
2024-03-16T02:38:41.654Z,106.50
2024-03-16T02:41:09.197Z,105.90
2024-03-16T02:43:36.721Z,105.60
2024-03-16T02:46:06.665Z,115.10
2024-03-16T02:48:34.179Z,99.90
2024-03-16T02:51:01.831Z,110.20
2024-03-16T02:53:29.371Z,99.30
2024-03-16T02:55:56.864Z,99.50
2024-03-16T02:58:24.345Z,104.50
2024-03-16T03:00:52.013Z,101.10
2024-03-16T03:03:20.122Z,96.40
2024-03-16T03:05:48.110Z,95.90
2024-03-16T03:08:15.507Z,106.20
2024-03-16T03:10:43.647Z,97.20
2024-03-16T03:13:11.217Z,92.50
2024-03-16T03:15:39.135Z,109.70
2024-03-16T03:18:07.223Z,91.20
2024-03-16T03:20:34.977Z,99.90
2024-03-16T03:23:03.419Z,103.00
2024-03-16T03:25:30.873Z,99.60
2024-03-16T03:27:58.443Z,91.60
2024-03-16T03:30:26.569Z,97.10
2024-03-16T03:32:54.174Z,83.60
2024-03-16T03:35:21.576Z,90.20
2024-03-16T03:37:49.591Z,93.30
2024-03-16T03:40:17.198Z,83.70
2024-03-16T03:42:49.317Z,87.80
2024-03-16T03:45:28.917Z,86.20
2024-03-16T03:48:04.497Z,99.50
2024-03-16T03:50:34.027Z,87.70
2024-03-16T03:53:04.110Z,83.10
2024-03-16T03:55:32.362Z,99.60
2024-03-16T03:58:01.678Z,89.30
2024-03-16T04:00:29.287Z,96.30
2024-03-16T04:02:56.786Z,95.30
2024-03-16T04:05:24.302Z,85.40
2024-03-16T04:07:51.747Z,95.30
2024-03-16T04:10:19.932Z,97.90
2024-03-16T04:12:47.455Z,90.50
2024-03-16T04:15:15.228Z,104.10
2024-03-16T04:17:42.710Z,93.80
2024-03-16T04:20:14.374Z,105.50
2024-03-16T04:22:42.345Z,95.20
2024-03-16T04:25:10.464Z,103.40
2024-03-16T04:27:37.983Z,98.40
2024-03-16T04:30:06.074Z,87.10
2024-03-16T04:32:34.390Z,98.00
2024-03-16T04:35:02.259Z,95.50
2024-03-16T04:37:29.651Z,91.70
2024-03-16T04:39:57.086Z,95.00
2024-03-16T04:42:24.757Z,91.70
2024-03-16T04:44:52.400Z,72.20
2024-03-16T04:47:19.833Z,80.30
2024-03-16T04:49:47.397Z,85.80
2024-03-16T04:52:17.836Z,84.60
2024-03-16T04:54:46.365Z,85.10
2024-03-16T04:57:13.918Z,84.10
2024-03-16T04:59:41.499Z,77.20
2024-03-16T05:02:09.265Z,83.50
2024-03-16T05:04:36.852Z,81.50
2024-03-16T05:07:04.394Z,85.70
2024-03-16T05:09:31.904Z,80.90
2024-03-16T05:11:59.534Z,97.60
2024-03-16T05:14:28.826Z,96.80
2024-03-16T05:16:56.975Z,97.00
2024-03-16T05:19:25.782Z,80.60
2024-03-16T05:21:53.759Z,86.70
2024-03-16T05:24:21.885Z,77.20
2024-03-16T05:26:50.021Z,75.80
2024-03-16T05:29:17.455Z,78.50
2024-03-16T05:31:55.528Z,90.80
2024-03-16T05:34:22.979Z,109.10
2024-03-16T05:36:50.395Z,97.50
2024-03-16T05:39:17.784Z,97.00
2024-03-16T05:41:45.153Z,116.10
2024-03-16T05:44:13.214Z,107.30
2024-03-16T05:46:40.629Z,112.80
2024-03-16T05:49:08.058Z,95.60
2024-03-16T05:51:35.593Z,90.00
2024-03-16T05:54:05.431Z,86.40
2024-03-16T05:56:33.852Z,80.50
2024-03-16T05:59:01.683Z,91.50
2024-03-16T06:01:29.320Z,98.40
2024-03-16T06:03:57.423Z,95.30
2024-03-16T06:06:25.037Z,103.40
2024-03-16T06:08:52.831Z,85.00
2024-03-16T06:11:20.205Z,82.30
2024-03-16T06:13:50.096Z,84.10
2024-03-16T06:16:17.785Z,87.20
2024-03-16T06:18:48.731Z,96.50
2024-03-16T06:21:16.593Z,97.40
2024-03-16T06:23:44.004Z,99.10
2024-03-16T06:26:18.359Z,104.40
2024-03-16T06:28:55.908Z,93.30
2024-03-16T06:31:33.150Z,99.40
2024-03-16T06:34:00.994Z,103.90
2024-03-16T06:36:29.255Z,109.60
2024-03-16T06:38:56.941Z,115.70
2024-03-16T06:41:26.229Z,110.80
2024-03-16T06:43:53.890Z,111.30
2024-03-16T06:46:22.934Z,109.90
2024-03-16T06:48:51.255Z,115.90
2024-03-16T06:51:20.011Z,106.40
2024-03-16T06:53:48.779Z,92.40
2024-03-16T06:56:16.359Z,101.30
2024-03-16T06:58:43.719Z,91.60
2024-03-16T07:01:13.675Z,90.10
2024-03-16T07:03:41.465Z,91.40
2024-03-16T07:06:10.297Z,97.40
2024-03-16T07:08:39.774Z,92.80
2024-03-16T07:11:07.417Z,84.80
2024-03-16T07:13:36.278Z,98.80
2024-03-16T07:16:04.163Z,94.20
2024-03-16T07:18:31.758Z,93.40
2024-03-16T07:20:59.276Z,91.00
2024-03-16T07:23:26.953Z,85.40
2024-03-16T07:25:54.379Z,82.10
2024-03-16T07:28:21.808Z,88.20
2024-03-16T07:30:49.238Z,91.40
2024-03-16T07:33:16.715Z,87.50
2024-03-16T07:35:44.134Z,84.60
2024-03-16T07:38:11.540Z,78.70
2024-03-16T07:40:38.942Z,84.50
2024-03-16T07:43:08.099Z,73.60
2024-03-16T07:45:43.286Z,80.70
2024-03-16T07:48:11.941Z,79.20
2024-03-16T07:50:39.450Z,78.80
2024-03-16T07:53:06.883Z,77.50
2024-03-16T07:55:35.060Z,75.70
2024-03-16T07:58:02.586Z,73.30
2024-03-16T08:00:30.046Z,73.80
2024-03-16T08:02:58.433Z,80.50
2024-03-16T08:05:26.121Z,74.70
2024-03-16T08:07:53.715Z,82.90
2024-03-16T08:10:21.828Z,75.00
2024-03-16T08:12:49.371Z,75.50
2024-03-16T08:15:16.954Z,73.90
2024-03-16T08:17:44.992Z,74.10
2024-03-16T08:20:16.378Z,72.60
2024-03-16T08:22:45.431Z,72.20
2024-03-16T08:25:12.989Z,79.60
2024-03-16T08:27:41.440Z,66.60
2024-03-16T08:30:10.230Z,84.00
2024-03-16T08:32:37.694Z,66.50
2024-03-16T08:35:05.681Z,79.40
2024-03-16T08:37:33.265Z,83.90
2024-03-16T08:40:00.956Z,75.90
2024-03-16T08:42:28.507Z,81.10
2024-03-16T08:44:56.046Z,82.90
2024-03-16T08:47:23.627Z,72.00
2024-03-16T08:49:50.988Z,78.20
2024-03-16T08:52:18.717Z,75.90
2024-03-16T08:54:46.425Z,74.50
2024-03-16T08:57:13.857Z,70.20
2024-03-16T08:59:41.849Z,72.20
2024-03-16T09:02:09.382Z,77.60
2024-03-16T09:04:36.889Z,75.10
2024-03-16T09:07:04.414Z,75.50
2024-03-16T09:09:32.024Z,83.20
2024-03-16T09:11:59.660Z,79.70
2024-03-16T09:14:27.175Z,81.90
2024-03-16T09:16:54.621Z,89.20
2024-03-16T09:19:22.072Z,71.10
2024-03-16T09:21:50.536Z,85.20
2024-03-16T09:24:19.201Z,81.20
2024-03-16T09:26:46.636Z,76.50
2024-03-16T09:29:14.238Z,73.00
2024-03-16T09:31:41.743Z,72.80
2024-03-16T09:34:09.894Z,73.30
2024-03-16T09:36:39.450Z,77.30
2024-03-16T09:39:11.828Z,73.60
2024-03-16T09:41:39.724Z,81.40
2024-03-16T09:44:12.100Z,82.20
2024-03-16T09:46:44.398Z,82.10
2024-03-16T09:49:11.942Z,80.00
2024-03-16T09:51:41.582Z,65.20
2024-03-16T09:54:10.137Z,76.80
2024-03-16T09:56:37.846Z,74.20
2024-03-16T09:59:17.610Z,67.10
2024-03-16T10:01:52.813Z,79.50
2024-03-16T10:04:20.213Z,69.80
2024-03-16T10:06:47.721Z,69.20
2024-03-16T10:09:16.625Z,75.50
2024-03-16T10:11:44.593Z,79.20
2024-03-16T10:14:12.470Z,72.10
2024-03-16T10:16:41.645Z,63.60
2024-03-16T10:19:09.142Z,69.20
2024-03-16T10:21:36.684Z,65.10
2024-03-16T10:24:04.370Z,70.20
2024-03-16T10:26:31.802Z,66.10
2024-03-16T10:29:00.282Z,66.00
2024-03-16T10:31:27.948Z,64.00
2024-03-16T10:33:55.477Z,66.20
2024-03-16T10:36:23.509Z,68.50
2024-03-16T10:38:51.719Z,93.10
2024-03-16T10:41:19.159Z,91.00
2024-03-16T10:43:46.601Z,97.50
2024-03-16T10:46:17.122Z,95.70
2024-03-16T10:48:44.663Z,103.10
2024-03-16T10:51:16.444Z,88.30
2024-03-16T10:53:44.020Z,86.60
2024-03-16T10:56:11.605Z,78.70
2024-03-16T10:58:39.084Z,79.20
2024-03-16T11:01:10.104Z,78.70
2024-03-16T11:03:44.101Z,87.50
2024-03-16T11:06:22.249Z,84.40
2024-03-16T11:08:50.412Z,74.70
2024-03-16T11:11:30.041Z,73.10
2024-03-16T11:14:00.450Z,83.00
2024-03-16T11:16:31.318Z,68.20
2024-03-16T11:18:59.900Z,57.50
2024-03-16T11:21:27.623Z,61.30
2024-03-16T11:23:55.031Z,66.30
2024-03-16T11:26:28.585Z,69.50
2024-03-16T11:29:11.573Z,78.10
2024-03-16T11:31:39.892Z,60.20
2024-03-16T11:34:09.822Z,52.90
2024-03-16T11:36:40.469Z,54.00
2024-03-16T11:39:13.926Z,52.20
2024-03-16T11:41:45.003Z,55.60
2024-03-16T11:44:16.147Z,53.70
2024-03-16T11:50:04.864Z,63.70
2024-03-16T11:52:32.805Z,58.50
2024-03-16T11:55:03.972Z,55.40
2024-03-16T11:57:33.066Z,59.40
2024-03-16T12:00:00.577Z,97.00
2024-03-16T12:02:28.054Z,48.70
2024-03-16T12:04:57.310Z,62.60
2024-03-16T12:07:25.315Z,87.60
2024-03-16T12:09:54.410Z,102.20
2024-03-16T12:12:22.747Z,59.60
2024-03-16T12:15:10.931Z,56.60
2024-03-16T12:17:38.951Z,72.20
2024-03-16T12:20:09.118Z,79.70
2024-03-16T12:22:42.344Z,64.80
2024-03-16T12:25:12.996Z,57.80
2024-03-16T12:27:42.061Z,52.30
2024-03-16T12:30:10.153Z,48.10
2024-03-16T12:32:37.617Z,58.20
2024-03-16T12:35:05.625Z,89.70
2024-03-16T12:37:37.308Z,61.40
2024-03-16T12:40:05.225Z,74.50
2024-03-16T12:42:33.914Z,64.60
2024-03-16T12:45:01.525Z,52.20
2024-03-16T12:47:29.405Z,51.90
2024-03-16T12:49:57.116Z,58.70
2024-03-16T12:52:24.628Z,55.70
2024-03-16T12:54:55.132Z,54.50
2024-03-16T12:57:22.522Z,53.90
2024-03-16T12:59:51.070Z,47.00
2024-03-16T13:02:18.482Z,44.70
2024-03-16T13:04:47.724Z,53.40
2024-03-16T13:07:16.078Z,53.10
2024-03-16T13:09:43.647Z,52.50
2024-03-16T13:12:11.917Z,42.80
2024-03-16T13:14:39.395Z,52.60
2024-03-16T13:17:07.153Z,57.40
2024-03-16T13:19:35.010Z,43.80
2024-03-16T13:22:02.567Z,45.50
2024-03-16T13:24:29.996Z,47.40
2024-03-16T13:26:58.117Z,57.90
2024-03-16T13:29:25.631Z,55.70
2024-03-16T13:31:53.499Z,98.60
2024-03-16T13:34:20.921Z,93.30
2024-03-16T13:36:49.260Z,95.40
2024-03-16T13:39:17.955Z,77.10
2024-03-16T13:41:45.459Z,61.70
2024-03-16T13:44:12.992Z,80.20
2024-03-16T13:46:40.547Z,53.90
2024-03-16T13:49:08.054Z,84.50
2024-03-16T13:51:35.529Z,54.20
2024-03-16T13:54:03.319Z,201.60
2024-03-16T13:56:31.166Z,69.50
2024-03-16T13:58:58.756Z,53.10
2024-03-16T14:01:28.941Z,83.20
2024-03-16T14:03:59.288Z,60.30
2024-03-16T14:06:26.745Z,65.00
2024-03-16T14:08:54.230Z,55.20
2024-03-16T14:11:22.633Z,57.70
2024-03-16T14:13:50.165Z,48.70
2024-03-16T14:16:18.048Z,54.50
2024-03-16T14:18:45.567Z,62.30
2024-03-16T14:21:13.446Z,63.00
2024-03-16T14:23:40.896Z,60.30
2024-03-16T14:26:08.718Z,61.80
2024-03-16T14:28:36.320Z,60.30
2024-03-16T14:31:04.703Z,64.00
2024-03-16T14:33:34.369Z,63.30
2024-03-16T14:36:02.159Z,66.40
2024-03-16T14:38:29.660Z,70.30
2024-03-16T14:40:57.240Z,61.80
2024-03-16T14:43:24.915Z,61.60
2024-03-16T14:45:53.436Z,76.20
2024-03-16T14:48:22.004Z,69.00
2024-03-16T14:50:49.825Z,62.00
2024-03-16T14:53:17.237Z,63.30
2024-03-16T14:55:44.924Z,60.10
2024-03-16T14:58:12.451Z,64.10
2024-03-16T15:00:39.932Z,56.40
2024-03-16T15:03:07.486Z,66.90
2024-03-16T15:05:36.102Z,54.20
2024-03-16T15:08:03.714Z,56.90
2024-03-16T15:10:31.191Z,60.40
2024-03-16T15:12:58.767Z,68.80
2024-03-16T15:15:26.176Z,70.20
2024-03-16T15:17:53.681Z,71.10
2024-03-16T15:20:21.690Z,73.30
2024-03-16T15:22:50.140Z,68.60
2024-03-16T15:25:21.488Z,66.00
2024-03-16T15:27:54.948Z,64.80
2024-03-16T15:30:23.816Z,62.70
2024-03-16T15:32:52.185Z,72.10
2024-03-16T15:35:19.678Z,75.70
2024-03-16T15:37:47.470Z,65.70
2024-03-16T15:40:15.129Z,78.30
2024-03-16T15:42:43.143Z,64.10
2024-03-16T15:45:11.467Z,62.00
2024-03-16T15:47:39.154Z,64.40
2024-03-16T15:50:06.770Z,68.40
2024-03-16T15:52:36.339Z,63.10
2024-03-16T15:55:03.997Z,69.60
2024-03-16T15:57:34.371Z,72.80
2024-03-16T16:00:01.858Z,72.10
2024-03-16T16:02:29.351Z,83.00
2024-03-16T16:04:59.339Z,82.90
2024-03-16T16:07:27.524Z,96.00
2024-03-16T16:09:54.947Z,88.90
2024-03-16T16:12:22.459Z,82.40
2024-03-16T16:14:50.780Z,91.80
2024-03-16T16:17:19.880Z,86.00
2024-03-16T16:19:47.438Z,116.40
2024-03-16T16:22:15.454Z,113.10
2024-03-16T16:24:43.165Z,111.80
2024-03-16T16:27:16.256Z,116.20
2024-03-16T16:29:44.650Z,119.20
2024-03-16T16:32:12.082Z,122.20
2024-03-16T16:34:39.576Z,127.80
2024-03-16T16:37:07.144Z,122.60
2024-03-16T16:39:34.913Z,120.50
2024-03-16T16:42:05.013Z,115.50
2024-03-16T16:44:32.874Z,125.30
2024-03-16T16:47:00.314Z,119.70
2024-03-16T16:49:28.053Z,120.10
2024-03-16T16:51:56.353Z,118.00
2024-03-16T16:54:23.886Z,114.00
2024-03-16T16:56:51.325Z,118.70
2024-03-16T16:59:18.802Z,123.20
2024-03-16T17:01:46.240Z,114.50
2024-03-16T17:04:13.696Z,112.30
2024-03-16T17:06:41.860Z,113.50
2024-03-16T17:09:09.675Z,108.90
2024-03-16T17:11:37.165Z,101.00
2024-03-16T17:14:06.356Z,102.00
2024-03-16T17:16:33.786Z,94.80
2024-03-16T17:19:02.434Z,96.70
2024-03-16T17:21:31.767Z,96.80
2024-03-16T17:23:59.188Z,92.50
2024-03-16T17:26:29.088Z,93.10
2024-03-16T17:28:56.738Z,88.50
2024-03-16T17:31:24.179Z,89.30
2024-03-16T17:33:51.632Z,87.80
2024-03-16T17:36:19.092Z,94.10
2024-03-16T17:38:46.738Z,80.40
2024-03-16T17:41:14.198Z,80.10
2024-03-16T17:43:41.704Z,70.30
2024-03-16T17:46:10.027Z,74.20
2024-03-16T17:48:37.642Z,70.60
2024-03-16T17:51:05.214Z,75.50
2024-03-16T17:53:35.323Z,66.10
2024-03-16T17:56:03.904Z,68.10
2024-03-16T17:58:31.626Z,64.40
2024-03-16T18:01:00.241Z,62.30
2024-03-16T18:03:27.710Z,58.60
2024-03-16T18:05:55.202Z,54.50
2024-03-16T18:08:22.930Z,62.80
2024-03-16T18:10:50.504Z,58.00
2024-03-16T18:13:18.043Z,65.20
2024-03-16T18:15:46.292Z,59.80
2024-03-16T18:18:16.388Z,62.30
2024-03-16T18:20:44.300Z,70.20
2024-03-16T18:23:11.838Z,66.50
2024-03-16T18:25:39.479Z,53.40
2024-03-16T18:28:07.035Z,53.20
2024-03-16T18:30:34.522Z,60.90
2024-03-16T18:33:02.188Z,60.60
2024-03-16T18:35:29.758Z,51.20
2024-03-16T18:37:57.256Z,51.00
2024-03-16T18:40:24.682Z,57.90
2024-03-16T18:42:52.293Z,51.80
2024-03-16T18:45:20.449Z,52.50
2024-03-16T18:47:47.918Z,57.00
2024-03-16T18:50:18.157Z,47.80
2024-03-16T18:52:45.603Z,51.50
2024-03-16T18:55:13.004Z,57.50
2024-03-16T18:57:43.785Z,48.70
2024-03-16T19:00:23.416Z,48.50
2024-03-16T19:03:11.045Z,49.50
2024-03-16T19:05:39.205Z,49.30
2024-03-16T19:08:06.692Z,46.70
2024-03-16T19:10:34.532Z,53.40
2024-03-16T19:13:02.067Z,57.00
2024-03-16T19:15:30.826Z,54.60
2024-03-16T19:18:00.119Z,56.90
2024-03-16T19:20:27.924Z,47.20
2024-03-16T19:22:58.345Z,52.10
2024-03-16T19:25:25.741Z,58.60
2024-03-16T19:27:53.264Z,56.50
2024-03-16T19:30:20.936Z,53.30
2024-03-16T19:32:48.449Z,46.70
2024-03-16T19:35:16.102Z,56.40
2024-03-16T19:37:43.787Z,59.80
2024-03-16T19:40:16.427Z,50.70
2024-03-16T19:42:44.108Z,48.80
2024-03-16T19:45:11.825Z,47.80
2024-03-16T19:47:40.922Z,50.20
2024-03-16T19:50:08.782Z,49.50
2024-03-16T19:52:36.244Z,42.60
2024-03-16T19:55:04.786Z,48.60
2024-03-16T19:57:34.225Z,51.90
2024-03-16T20:00:10.714Z,50.30
2024-03-16T20:02:38.748Z,46.00
2024-03-16T20:05:07.577Z,48.60
2024-03-16T20:07:35.329Z,51.00
2024-03-16T20:10:02.930Z,53.20
2024-03-16T20:12:30.383Z,51.80
2024-03-16T20:14:59.069Z,47.70
2024-03-16T20:17:26.937Z,48.40
2024-03-16T20:19:58.686Z,50.40
2024-03-16T20:22:29.276Z,50.80
2024-03-16T20:24:59.159Z,51.40
2024-03-16T20:27:27.735Z,44.20
2024-03-16T20:29:55.194Z,48.10
2024-03-16T20:32:22.935Z,49.30
2024-03-16T20:34:50.376Z,46.20
2024-03-16T20:37:18.112Z,45.50
2024-03-16T20:39:47.688Z,43.20
2024-03-16T20:42:16.598Z,49.30
2024-03-16T20:44:44.096Z,49.00
2024-03-16T20:47:11.498Z,50.30
2024-03-16T20:49:39.478Z,51.70
2024-03-16T20:52:07.416Z,46.00
2024-03-16T20:54:34.957Z,48.40
2024-03-16T20:57:02.390Z,50.00
2024-03-16T20:59:29.877Z,49.40
2024-03-16T21:01:57.542Z,45.80
2024-03-16T21:04:25.111Z,47.90
2024-03-16T21:06:52.984Z,55.30
2024-03-16T21:09:21.754Z,45.00
2024-03-16T21:11:50.186Z,44.90
2024-03-16T21:14:17.818Z,43.40
2024-03-16T21:16:46.383Z,50.40
2024-03-16T21:19:14.018Z,45.30
2024-03-16T21:21:42.106Z,47.80
2024-03-16T21:24:11.393Z,66.00
2024-03-16T21:26:38.942Z,70.90
2024-03-16T21:29:06.388Z,59.80
2024-03-16T21:31:33.814Z,51.90
2024-03-16T21:34:01.396Z,52.20
2024-03-16T21:36:28.857Z,42.80
2024-03-16T21:38:56.272Z,47.10
2024-03-16T21:41:23.886Z,43.80
2024-03-16T21:43:51.328Z,58.10
2024-03-16T21:46:18.742Z,66.00
2024-03-16T21:48:47.379Z,65.40
2024-03-16T21:51:14.794Z,58.30
2024-03-16T21:53:42.455Z,50.40
2024-03-16T21:56:10.011Z,67.00
2024-03-16T21:58:37.963Z,58.90
2024-03-16T22:01:05.391Z,57.60
2024-03-16T22:03:32.848Z,60.30
2024-03-16T22:06:03.181Z,75.40
2024-03-16T22:08:31.156Z,64.60
2024-03-16T22:10:58.875Z,63.70
2024-03-16T22:13:26.398Z,58.60
2024-03-16T22:15:53.758Z,56.70
2024-03-16T22:18:21.202Z,60.70
2024-03-16T22:20:48.628Z,64.80
2024-03-16T22:23:16.861Z,62.30
2024-03-16T22:25:44.762Z,58.10
2024-03-16T22:28:12.206Z,57.60
2024-03-16T22:30:39.663Z,55.50
2024-03-16T22:33:10.229Z,56.80
2024-03-16T22:35:37.570Z,51.60
2024-03-16T22:38:05.355Z,65.00
2024-03-16T22:40:32.849Z,66.80
2024-03-16T22:43:06.904Z,55.00
2024-03-16T22:45:40.568Z,66.30
2024-03-16T22:48:08.312Z,65.30
2024-03-16T22:50:35.680Z,65.10
2024-03-16T22:53:03.228Z,60.30
2024-03-16T22:55:31.979Z,56.40
2024-03-16T22:57:59.401Z,64.30
2024-03-16T23:00:31.986Z,49.20
2024-03-16T23:02:59.618Z,49.50
2024-03-16T23:05:28.011Z,51.20
2024-03-16T23:07:57.901Z,52.00
2024-03-16T23:10:25.250Z,60.40
2024-03-16T23:12:53.108Z,62.90
2024-03-16T23:15:21.231Z,56.20
2024-03-16T23:17:50.519Z,51.30
2024-03-16T23:20:19.457Z,59.10
2024-03-16T23:22:47.320Z,60.50
2024-03-16T23:25:14.730Z,61.50
2024-03-16T23:27:42.477Z,58.10
2024-03-16T23:30:10.992Z,66.90
2024-03-16T23:32:39.753Z,65.20
2024-03-16T23:35:09.480Z,69.70
2024-03-16T23:37:36.953Z,69.30
2024-03-16T23:40:09.117Z,72.20
2024-03-16T23:42:37.083Z,68.80
2024-03-16T23:45:05.769Z,67.40
2024-03-16T23:47:33.126Z,72.30
2024-03-16T23:50:00.855Z,75.00
2024-03-16T23:52:28.209Z,66.90
2024-03-16T23:54:55.527Z,65.00
2024-03-16T23:57:23.017Z,54.40
2024-03-16T23:59:51.047Z,54.40
